Coleman, Arkansas
Current Conditions -  °F | °C
As of 4:23 PM on Friday 19 Dec 2014 (Local Time) from KLLQ Reporting Station
Broken Clouds Broken Clouds  
Wind Chill: 46°   Ceiling: 2400
Heat Index: 46°   Visibility: 10mi
Dew Point: 42°   Wind: 3mph
Humidity: 86%   Direction: NA
Pressure: 30.18"   Gusts: NA
Location:  33.5819°N, 91.7907°W
Report Text: KLLQ 192223Z AUTO VRB03KT 10SM FEW013 BKN024 08/06 A3018 RMK AO2 PRESRR T00780056
Loading
Personal Weather Stations






























Interactive Weather Map New forecast layout! Learn more

10-Day Weather Forecast

Advertisements
Track Severe Weather on mobile